Burlington, WA

11:49 AM PDT on September 01, 2014 (GMT -0700)
Bow | Change Station
CLOSE
Current Station
Personal Weather Station
Location: Bow, WA
Elevation: 85 ft
Nearby Weather Stations

Elev 85 ft 48.54 °N, 122.37 °W | Updated 4 minutes ago

Partly Cloudy
Partly Cloudy
66.3 °F
Feels Like 66.3 °F
N
1.0
Wind Variable Wind from ENE
Gusts 2.0 mph

Today
High -- | Low -- °F
--% Chance of Precip.
Yesterday
High -- | Low -- °F
Precip. -- in
6:26 AM 7:50 PM
Waxing Crescent, 43% visible
Pressure 30.09 in
Visibility 10.0 miles
Clouds Few 2900 ft
Dew Point 57 °F
Humidity 73%
Rainfall 0.00 in
Snow Depth Not available.
UV 4.6 out of 12
Pollen 2.80 out of 12
PM2.5 Good
Flu Activity Not available.
METAR KBVS 011835Z AUTO 13008KT 030V030 10SM FEW029 21/13 A3009 RMK A01 P000

More Conditions Fewer Conditions

Pressure 30.09 in
Visibility 10.0 miles
Clouds Few 2900 ft
Dew Point 57 °F
Humidity 73%
Rainfall 0.00 in
Snow Depth Not available.
UV 4.6 out of 12
Pollen 2.80 out of 12
PM2.5 Good
Flu Activity Not available.
METAR KBVS 011835Z AUTO 13008KT 030V030 10SM FEW029 21/13 A3009 RMK A01 P000

More Conditions Fewer Conditions

10-Day Weather Forecast

Almanac

Astronomy

Sep. 01, 2014 Rise Set
Actual Time 6:26 AM PDT 7:50 PM PDT
Civil Twilight 5:54 AM PDT 8:23 PM PDT
Nautical Twilight 5:14 AM PDT 9:02 PM PDT
Astronomical Twilight 4:32 AM PDT 9:45 PM PDT
Moon 1:50 PM PDT 11:23 PM PDT
Length of Visible Light 14h 29m
Length of Day
13h 24m
Tomorrow will be 3m 26s shorter.
Waxing Crescent, 43% of the Moon is Illuminated
Today
Waxing Crescent
Sep 2
First Quarter
Sep 8
Full
Sep 15
Last Quarter
Sep 24
New

Today's Extremes

State Highs State Lows

Community

WunderPhotos

Upload Photos

1,749,359 photos uploaded!

Nearby

Air Quality

  Air Quality AQ Index Pollutant
Yesterday Good
OZONE
Yesterday Good
PM2.5
Current Good
PM2.5
Monday Good
OZONE
Monday Good
PM2.5
Tuesday Good
OZONE
Tuesday Good
PM2.5

Snow Depth

Station Depth Elevation
Dungeness 0 in 4100 ft
Beaver Pass 0 in 3620 ft
Alpine Meadows 0 in 3500 ft
Lyman Lake 0 in 5900 ft
Rainy Pass 0 in 4780 ft

Earthquake Activity

City Distance Mag. Time & Date
No recent earthquake activity has been reported nearby.
Minimum magnitude displayed is 2.5.

Coastal Water Temperatures

Place Temperature
Port Townsend, WA 53.1 °F
Friday Harbor, WA 53.1 °F
Port Angeles, WA 52.0 °F

Nearby Weather Stations